createdAt,value
2023-01-29T00:01:57.134Z,17.17
2023-01-29T00:04:24.273Z,16.63
2023-01-29T00:06:50.965Z,17.60
2023-01-29T00:09:18.479Z,16.63
2023-01-29T00:11:45.221Z,15.90
2023-01-29T00:14:12.014Z,14.73
2023-01-29T00:16:38.704Z,16.40
2023-01-29T00:19:05.463Z,15.18
2023-01-29T00:21:32.444Z,15.32
2023-01-29T00:24:00.113Z,15.18
2023-01-29T00:26:26.766Z,15.23
2023-01-29T00:28:53.888Z,15.63
2023-01-29T00:31:23.637Z,15.68
2023-01-29T00:33:50.594Z,16.20
2023-01-29T00:36:19.063Z,14.48
2023-01-29T00:38:54.454Z,14.85
2023-01-29T00:41:41.506Z,15.15
2023-01-29T00:44:28.745Z,16.90
2023-01-29T00:46:55.408Z,16.48
2023-01-29T00:49:22.133Z,17.00
2023-01-29T00:52:08.985Z,16.90
2023-01-29T00:54:36.329Z,17.58
2023-01-29T00:57:04.346Z,16.88
2023-01-29T00:59:31.821Z,17.83
2023-01-29T01:02:16.978Z,16.67
2023-01-29T01:04:43.527Z,15.98
2023-01-29T01:09:55.097Z,16.15
2023-01-29T01:12:22.112Z,16.40
2023-01-29T01:14:49.060Z,16.60
2023-01-29T01:17:15.780Z,16.27
2023-01-29T01:19:42.941Z,15.93
2023-01-29T01:22:09.613Z,17.35
2023-01-29T01:24:36.275Z,17.02
2023-01-29T01:27:03.092Z,18.02
2023-01-29T01:29:29.752Z,16.70
2023-01-29T01:31:56.471Z,16.15
2023-01-29T01:34:23.877Z,16.95
2023-01-29T01:36:50.435Z,17.58
2023-01-29T01:39:16.959Z,18.15
2023-01-29T01:41:43.536Z,16.30
2023-01-29T01:44:47.806Z,18.83
2023-01-29T01:47:15.976Z,60.17
2023-01-29T01:49:44.050Z,28.40
2023-01-29T01:52:13.558Z,21.40
2023-01-29T01:54:40.923Z,18.83
2023-01-29T01:57:16.145Z,18.58
2023-01-29T01:59:50.346Z,18.60
2023-01-29T02:02:36.201Z,17.85
2023-01-29T02:05:21.452Z,18.00
2023-01-29T02:08:08.961Z,16.88
2023-01-29T02:10:41.468Z,17.52
2023-01-29T02:15:34.867Z,17.30
2023-01-29T02:18:02.248Z,17.48
2023-01-29T02:20:32.013Z,16.50
2023-01-29T02:23:38.612Z,16.17
2023-01-29T02:26:50.381Z,17.38
2023-01-29T02:29:30.462Z,13.65
2023-01-29T02:32:36.924Z,16.83
2023-01-29T02:35:29.728Z,15.60
2023-01-29T02:38:15.693Z,17.77
2023-01-29T02:40:48.291Z,17.60
2023-01-29T02:45:54.034Z,16.00
2023-01-29T02:48:24.549Z,16.60
2023-01-29T02:51:00.440Z,17.10
2023-01-29T02:53:38.179Z,17.30
2023-01-29T02:56:15.301Z,16.40
2023-01-29T02:58:46.011Z,17.98
2023-01-29T03:01:19.015Z,16.60
2023-01-29T03:03:55.804Z,17.80
2023-01-29T03:06:53.159Z,16.80
2023-01-29T03:09:34.145Z,17.27
2023-01-29T03:12:19.813Z,18.00
2023-01-29T03:15:16.870Z,18.67
2023-01-29T03:18:00.382Z,18.88
2023-01-29T03:20:32.821Z,16.50
2023-01-29T03:23:07.755Z,17.02
2023-01-29T03:25:58.922Z,18.20
2023-01-29T03:28:48.867Z,17.98
2023-01-29T03:31:37.196Z,16.40
2023-01-29T03:34:16.363Z,16.92
2023-01-29T03:36:55.758Z,18.70
2023-01-29T03:39:24.378Z,16.80
2023-01-29T03:42:00.681Z,18.13
2023-01-29T03:44:42.434Z,18.38
2023-01-29T03:47:30.991Z,18.13
2023-01-29T03:50:38.863Z,17.75
2023-01-29T03:53:43.976Z,18.30
2023-01-29T03:56:32.696Z,17.38
2023-01-29T03:59:11.861Z,18.42
2023-01-29T04:02:08.626Z,18.35
2023-01-29T04:04:37.854Z,18.92
2023-01-29T04:07:23.693Z,17.58
2023-01-29T04:10:07.169Z,18.02
2023-01-29T04:12:55.106Z,18.23
2023-01-29T04:15:25.659Z,18.38
2023-01-29T04:17:53.282Z,19.48
2023-01-29T04:20:27.364Z,18.77
2023-01-29T04:22:54.707Z,19.02
2023-01-29T04:25:28.849Z,19.90
2023-01-29T04:28:23.288Z,19.63
2023-01-29T04:30:55.707Z,20.50
2023-01-29T04:33:44.452Z,18.58
2023-01-29T04:36:46.258Z,20.08
2023-01-29T04:39:23.995Z,21.58
2023-01-29T04:42:04.886Z,19.70
2023-01-29T04:44:49.860Z,19.98
2023-01-29T04:47:37.163Z,20.83
2023-01-29T04:50:14.922Z,20.40
2023-01-29T04:53:03.299Z,18.77
2023-01-29T04:55:56.805Z,20.83
2023-01-29T04:58:41.382Z,21.10
2023-01-29T05:01:13.035Z,19.33
2023-01-29T05:03:42.838Z,22.87
2023-01-29T05:06:11.638Z,20.33
2023-01-29T05:08:39.679Z,20.42
2023-01-29T05:11:06.920Z,22.45
2023-01-29T05:13:39.431Z,23.00
2023-01-29T05:18:36.567Z,22.75
2023-01-29T05:21:07.446Z,20.20
2023-01-29T05:23:34.313Z,21.00
2023-01-29T05:26:01.109Z,20.98
2023-01-29T05:28:27.705Z,21.15
2023-01-29T05:30:56.775Z,22.05
2023-01-29T05:33:28.041Z,21.98
2023-01-29T05:35:56.028Z,21.48
2023-01-29T05:38:23.201Z,22.77
2023-01-29T05:40:49.853Z,22.48
2023-01-29T05:43:19.084Z,22.63
2023-01-29T05:45:59.666Z,22.60
2023-01-29T05:48:32.308Z,22.58
2023-01-29T05:51:03.664Z,23.38
2023-01-29T05:53:31.312Z,22.48
2023-01-29T05:56:01.383Z,21.35
2023-01-29T05:58:28.196Z,20.40
2023-01-29T06:00:54.722Z,21.23
2023-01-29T06:03:21.209Z,22.30
2023-01-29T06:05:47.807Z,22.63
2023-01-29T06:08:14.395Z,22.75
2023-01-29T06:10:41.001Z,23.35
2023-01-29T06:13:07.926Z,21.90
2023-01-29T06:15:34.568Z,19.73
2023-01-29T06:18:01.092Z,20.73
2023-01-29T06:20:27.756Z,23.48
2023-01-29T06:22:54.400Z,24.50
2023-01-29T06:25:21.064Z,24.58
2023-01-29T06:27:51.085Z,22.95
2023-01-29T06:30:18.002Z,24.10
2023-01-29T06:32:44.765Z,24.88
2023-01-29T06:35:11.329Z,23.25
2023-01-29T06:37:38.329Z,23.83
2023-01-29T06:40:05.435Z,24.45
2023-01-29T06:42:32.078Z,24.38
2023-01-29T06:44:58.568Z,24.13
2023-01-29T06:47:27.125Z,23.88
2023-01-29T06:49:53.704Z,25.40
2023-01-29T06:52:20.204Z,23.05
2023-01-29T06:54:47.465Z,23.85
2023-01-29T06:57:14.064Z,24.95
2023-01-29T06:59:40.668Z,23.65
2023-01-29T07:02:07.278Z,23.25
2023-01-29T07:04:35.492Z,24.67
2023-01-29T07:07:02.105Z,23.55
2023-01-29T07:09:28.681Z,25.15
2023-01-29T07:11:55.283Z,25.52
2023-01-29T07:14:22.071Z,23.40
2023-01-29T07:16:48.680Z,25.38
2023-01-29T07:19:15.305Z,24.38
2023-01-29T07:21:41.941Z,23.67
2023-01-29T07:24:08.808Z,24.88
2023-01-29T07:26:35.433Z,23.95
2023-01-29T07:29:01.949Z,24.38
2023-01-29T07:31:28.657Z,24.40
2023-01-29T07:33:55.874Z,24.65
2023-01-29T07:36:24.050Z,25.58
2023-01-29T07:38:51.341Z,24.95
2023-01-29T07:41:17.943Z,24.08
2023-01-29T07:43:46.096Z,24.70
2023-01-29T07:46:12.766Z,23.80
2023-01-29T07:48:39.406Z,24.13
2023-01-29T07:51:06.550Z,26.13
2023-01-29T07:53:33.368Z,23.40
2023-01-29T07:56:00.188Z,26.05
2023-01-29T07:58:26.718Z,24.90
2023-01-29T08:00:53.281Z,23.35
2023-01-29T08:03:20.744Z,23.25
2023-01-29T08:05:47.448Z,25.52
2023-01-29T08:08:14.917Z,25.17
2023-01-29T08:10:41.769Z,26.02
2023-01-29T08:13:09.065Z,25.23
2023-01-29T08:15:38.011Z,26.10
2023-01-29T08:18:05.866Z,25.27
2023-01-29T08:20:32.467Z,25.73
2023-01-29T08:23:01.163Z,25.63
2023-01-29T08:25:28.584Z,25.90
2023-01-29T08:27:57.487Z,24.33
2023-01-29T08:30:29.660Z,24.67
2023-01-29T08:32:56.350Z,24.83
2023-01-29T08:35:23.503Z,24.90
2023-01-29T08:37:59.363Z,25.77
2023-01-29T08:40:27.825Z,25.70
2023-01-29T08:43:01.509Z,24.63
2023-01-29T08:45:28.999Z,24.42
2023-01-29T08:47:55.529Z,25.02
2023-01-29T08:50:22.168Z,23.75
2023-01-29T08:52:48.653Z,24.38
2023-01-29T08:55:15.559Z,25.42
2023-01-29T08:57:42.245Z,23.15
2023-01-29T09:00:10.170Z,24.90
2023-01-29T09:02:37.690Z,22.33
2023-01-29T09:05:05.585Z,23.48
2023-01-29T09:07:32.164Z,23.02
2023-01-29T09:09:58.753Z,22.00
2023-01-29T09:12:25.893Z,23.30
2023-01-29T09:14:52.574Z,23.20
2023-01-29T09:17:19.358Z,23.67
2023-01-29T09:19:46.025Z,22.02
2023-01-29T09:22:15.621Z,22.58
2023-01-29T09:24:42.254Z,21.77
2023-01-29T09:27:10.001Z,19.92
2023-01-29T09:29:37.117Z,22.88
2023-01-29T09:32:04.623Z,21.75
2023-01-29T09:34:31.279Z,22.45
2023-01-29T09:36:57.922Z,22.27
2023-01-29T09:39:24.509Z,23.58
2023-01-29T09:42:03.165Z,23.48
2023-01-29T09:44:38.913Z,22.63
2023-01-29T09:47:13.201Z,21.77
2023-01-29T09:50:01.503Z,21.48
2023-01-29T09:52:30.173Z,22.45
2023-01-29T09:55:28.508Z,20.17
2023-01-29T09:57:58.421Z,21.67
2023-01-29T10:00:37.449Z,21.23
2023-01-29T10:03:31.737Z,22.42
2023-01-29T10:06:34.948Z,22.77
2023-01-29T10:12:27.372Z,21.73
2023-01-29T10:15:45.208Z,20.85
2023-01-29T10:18:35.783Z,21.88
2023-01-29T10:21:19.579Z,22.38
2023-01-29T10:23:50.873Z,22.73
2023-01-29T10:26:21.188Z,19.75
2023-01-29T10:28:50.825Z,22.02
2023-01-29T10:31:24.955Z,21.08
2023-01-29T10:34:03.466Z,23.08
2023-01-29T10:36:45.727Z,20.45
2023-01-29T10:39:18.367Z,21.95
2023-01-29T10:42:01.583Z,20.73
2023-01-29T10:44:39.508Z,20.52
2023-01-29T10:47:30.236Z,20.48
2023-01-29T10:50:21.356Z,21.63
2023-01-29T10:52:55.122Z,21.92
2023-01-29T10:55:46.565Z,21.58
2023-01-29T10:58:37.510Z,20.65
2023-01-29T11:01:04.516Z,21.77
2023-01-29T11:03:33.295Z,19.45
2023-01-29T11:06:19.543Z,21.48
2023-01-29T11:09:23.111Z,20.15
2023-01-29T11:11:54.497Z,20.20
2023-01-29T11:14:26.625Z,20.25
2023-01-29T11:16:53.365Z,20.65
2023-01-29T11:19:37.219Z,18.88
2023-01-29T11:22:04.430Z,20.27
2023-01-29T11:24:31.079Z,18.35
2023-01-29T11:26:59.672Z,18.58
2023-01-29T11:29:43.113Z,18.42
2023-01-29T11:32:21.786Z,18.33
2023-01-29T11:34:58.675Z,18.02
2023-01-29T11:37:32.420Z,19.17
2023-01-29T11:39:59.234Z,17.38
2023-01-29T11:42:34.760Z,17.90
2023-01-29T11:45:01.330Z,17.85
2023-01-29T11:47:30.240Z,17.27
2023-01-29T11:50:03.114Z,18.02
2023-01-29T11:52:42.054Z,19.17
2023-01-29T11:55:18.697Z,16.98
2023-01-29T11:57:52.125Z,18.17
2023-01-29T12:00:28.289Z,16.60
2023-01-29T12:02:57.809Z,17.08
2023-01-29T12:05:26.483Z,15.68
2023-01-29T12:07:56.612Z,17.55
2023-01-29T12:10:35.601Z,16.30
2023-01-29T12:13:11.116Z,17.35
2023-01-29T12:15:42.642Z,18.70
2023-01-29T12:18:14.449Z,15.43
2023-01-29T12:20:47.792Z,16.63
2023-01-29T12:23:33.549Z,16.20
2023-01-29T12:26:12.807Z,17.55
2023-01-29T12:28:43.856Z,17.52
2023-01-29T12:31:33.109Z,16.85
2023-01-29T12:34:56.349Z,16.35
2023-01-29T12:37:31.761Z,16.13
2023-01-29T12:39:58.396Z,16.55
2023-01-29T12:42:25.468Z,16.45
2023-01-29T12:44:57.553Z,16.52
2023-01-29T12:47:31.069Z,15.30
2023-01-29T12:50:03.538Z,16.92
2023-01-29T12:53:07.308Z,17.20
2023-01-29T12:55:45.121Z,17.13
2023-01-29T12:58:28.622Z,16.85
2023-01-29T13:01:00.889Z,18.02
2023-01-29T13:03:37.460Z,17.40
2023-01-29T13:06:10.701Z,17.88
2023-01-29T13:08:44.950Z,18.23
2023-01-29T13:11:19.670Z,18.73
2023-01-29T13:13:54.606Z,19.77
2023-01-29T13:16:33.348Z,18.65
2023-01-29T13:19:23.999Z,17.95
2023-01-29T13:21:53.511Z,19.63
2023-01-29T13:24:23.476Z,19.63
2023-01-29T13:26:50.862Z,18.52
2023-01-29T13:29:23.706Z,18.80
2023-01-29T13:31:53.566Z,18.75
2023-01-29T13:34:22.873Z,19.80
2023-01-29T13:36:56.106Z,19.58
2023-01-29T13:39:25.026Z,20.00
2023-01-29T13:41:52.955Z,23.20
2023-01-29T13:44:42.242Z,20.65
2023-01-29T13:47:11.854Z,22.17
2023-01-29T13:49:41.850Z,22.40
2023-01-29T13:52:27.548Z,21.48
2023-01-29T13:54:58.642Z,20.90
2023-01-29T13:57:40.361Z,21.15
2023-01-29T14:00:32.962Z,20.58
2023-01-29T14:03:04.622Z,20.35
2023-01-29T14:05:31.185Z,20.53
2023-01-29T14:08:02.081Z,21.10
2023-01-29T14:10:30.638Z,20.73
2023-01-29T14:13:03.220Z,21.58
2023-01-29T14:18:22.063Z,20.75
2023-01-29T14:20:48.492Z,21.58
2023-01-29T14:23:33.171Z,22.10
2023-01-29T14:26:02.509Z,22.33
2023-01-29T14:28:30.937Z,21.58
2023-01-29T14:30:58.226Z,21.20
2023-01-29T14:33:37.458Z,22.10
2023-01-29T14:36:12.554Z,21.33
2023-01-29T14:38:46.416Z,21.70
2023-01-29T14:41:33.998Z,21.98
2023-01-29T14:44:38.021Z,21.20
2023-01-29T14:47:04.881Z,22.00
2023-01-29T14:49:50.215Z,22.08
2023-01-29T14:52:20.552Z,22.10
2023-01-29T14:54:48.629Z,21.75
2023-01-29T14:57:17.862Z,22.45
2023-01-29T14:59:49.139Z,22.45
2023-01-29T15:02:22.854Z,23.33
2023-01-29T15:04:53.881Z,22.77
2023-01-29T15:07:30.156Z,22.50
2023-01-29T15:10:22.237Z,24.63
2023-01-29T15:12:58.128Z,23.13
2023-01-29T15:15:56.984Z,23.80
2023-01-29T15:18:43.209Z,22.83
2023-01-29T15:21:15.623Z,22.55
2023-01-29T15:23:44.135Z,22.38
2023-01-29T15:26:19.052Z,22.13
2023-01-29T15:29:02.127Z,24.08
2023-01-29T15:31:31.243Z,22.83
2023-01-29T15:34:06.612Z,22.40
2023-01-29T15:36:33.566Z,22.77
2023-01-29T15:39:28.282Z,22.52
2023-01-29T15:42:12.671Z,23.48
2023-01-29T15:44:45.566Z,22.85
2023-01-29T15:47:13.534Z,25.38
2023-01-29T15:49:41.295Z,23.30
2023-01-29T15:52:15.919Z,24.88
2023-01-29T15:54:44.043Z,23.65
2023-01-29T15:57:21.531Z,23.05
2023-01-29T15:59:51.742Z,23.95
2023-01-29T16:02:39.646Z,22.50
2023-01-29T16:05:30.610Z,22.60
2023-01-29T16:07:57.716Z,22.90
2023-01-29T16:10:29.984Z,21.20
2023-01-29T16:12:57.869Z,23.45
2023-01-29T16:15:33.923Z,22.95
2023-01-29T16:18:03.232Z,23.95
2023-01-29T16:20:46.731Z,22.50
2023-01-29T16:23:19.923Z,22.33
2023-01-29T16:25:48.848Z,22.67
2023-01-29T16:28:16.351Z,22.55
2023-01-29T16:30:43.033Z,21.42
2023-01-29T16:33:14.638Z,21.45
2023-01-29T16:35:41.887Z,23.35
2023-01-29T16:38:32.501Z,22.50
2023-01-29T16:41:14.232Z,22.33
2023-01-29T16:43:43.575Z,22.10
2023-01-29T16:46:44.716Z,20.58
2023-01-29T16:49:26.804Z,22.35
2023-01-29T16:51:56.263Z,22.08
2023-01-29T16:54:27.551Z,23.88
2023-01-29T16:56:58.965Z,23.45
2023-01-29T16:59:34.082Z,23.38
2023-01-29T17:02:01.060Z,23.45
2023-01-29T17:04:28.042Z,22.80
2023-01-29T17:06:58.693Z,23.13
2023-01-29T17:09:34.807Z,22.00
2023-01-29T17:12:05.538Z,23.27
2023-01-29T17:14:33.281Z,23.98
2023-01-29T17:17:14.335Z,24.08
2023-01-29T17:19:40.920Z,22.90
2023-01-29T17:22:14.804Z,24.00
2023-01-29T17:24:42.116Z,21.85
2023-01-29T17:27:18.761Z,21.83
2023-01-29T17:29:45.562Z,23.15
2023-01-29T17:32:12.640Z,21.17
2023-01-29T17:34:39.527Z,22.40
2023-01-29T17:37:06.053Z,21.10
2023-01-29T17:39:32.707Z,22.65
2023-01-29T17:41:59.355Z,22.23
2023-01-29T17:44:26.145Z,23.73
2023-01-29T17:46:52.828Z,23.08
2023-01-29T17:49:27.728Z,21.35
2023-01-29T17:51:56.049Z,22.13
2023-01-29T17:54:23.126Z,22.88
2023-01-29T17:56:50.493Z,20.58
2023-01-29T17:59:22.195Z,21.40
2023-01-29T18:01:50.073Z,19.97
2023-01-29T18:04:17.784Z,19.73
2023-01-29T18:06:47.500Z,20.70
2023-01-29T18:09:15.640Z,21.15
2023-01-29T18:11:43.101Z,19.70
2023-01-29T18:14:14.498Z,19.33
2023-01-29T18:16:42.930Z,21.52
2023-01-29T18:19:16.258Z,19.58
2023-01-29T18:21:42.839Z,19.25
2023-01-29T18:24:09.462Z,20.90
2023-01-29T18:26:36.461Z,20.13
2023-01-29T18:29:04.359Z,19.77
2023-01-29T18:31:31.697Z,19.50
2023-01-29T18:33:58.386Z,19.77
2023-01-29T18:36:25.097Z,21.02
2023-01-29T18:38:51.775Z,19.60
2023-01-29T18:41:18.612Z,19.45
2023-01-29T18:43:45.241Z,18.75
2023-01-29T18:46:11.944Z,20.17
2023-01-29T18:48:39.916Z,19.90
2023-01-29T18:51:07.545Z,20.17
2023-01-29T18:53:34.149Z,18.15
2023-01-29T18:56:04.300Z,19.25
2023-01-29T18:58:34.424Z,18.98
2023-01-29T19:01:01.958Z,20.38
2023-01-29T19:03:28.671Z,20.70
2023-01-29T19:06:01.119Z,20.15
2023-01-29T19:08:27.977Z,19.52
2023-01-29T19:10:54.793Z,20.92
2023-01-29T19:13:21.580Z,20.48
2023-01-29T19:15:49.043Z,21.25
2023-01-29T19:18:15.763Z,19.27
2023-01-29T19:20:42.428Z,19.88
2023-01-29T19:23:09.546Z,22.05
2023-01-29T19:25:38.678Z,20.17
2023-01-29T19:28:06.986Z,20.55
2023-01-29T19:30:33.697Z,19.17
2023-01-29T19:33:00.281Z,20.48
2023-01-29T19:35:27.001Z,20.58
2023-01-29T19:37:53.515Z,18.92
2023-01-29T19:40:20.982Z,20.00
2023-01-29T19:42:48.472Z,20.45
2023-01-29T19:45:15.359Z,20.45
2023-01-29T19:47:43.403Z,20.15
2023-01-29T19:50:11.205Z,20.85
2023-01-29T19:52:50.649Z,19.95
2023-01-29T19:55:18.880Z,21.13
2023-01-29T19:57:46.256Z,22.25
2023-01-29T20:00:17.256Z,20.73
2023-01-29T20:02:43.912Z,21.95
2023-01-29T20:05:12.624Z,21.63
2023-01-29T20:07:41.077Z,21.00
2023-01-29T20:10:11.336Z,22.15
2023-01-29T20:12:38.356Z,21.50
2023-01-29T20:15:05.345Z,22.75
2023-01-29T20:17:32.137Z,21.15
2023-01-29T20:19:58.662Z,22.45
2023-01-29T20:22:26.499Z,21.95
2023-01-29T20:24:53.167Z,20.45
2023-01-29T20:27:19.738Z,21.95
2023-01-29T20:29:46.593Z,21.73
2023-01-29T20:32:14.461Z,22.83
2023-01-29T20:34:41.325Z,23.20
2023-01-29T20:37:07.841Z,23.45
2023-01-29T20:39:34.377Z,22.35
2023-01-29T20:42:00.919Z,22.52
2023-01-29T20:44:27.495Z,22.25
2023-01-29T20:46:54.135Z,24.58
2023-01-29T20:49:21.711Z,23.55
2023-01-29T20:51:48.568Z,22.77
2023-01-29T20:54:15.155Z,21.92
2023-01-29T20:56:42.859Z,22.60
2023-01-29T20:59:10.375Z,22.25
2023-01-29T21:01:37.067Z,22.42
2023-01-29T21:04:03.758Z,23.48
2023-01-29T21:06:30.462Z,24.48
2023-01-29T21:08:57.114Z,23.60
2023-01-29T21:11:23.862Z,22.88
2023-01-29T21:13:53.158Z,23.42
2023-01-29T21:16:19.876Z,23.63
2023-01-29T21:18:46.556Z,22.67
2023-01-29T21:21:13.229Z,22.52
2023-01-29T21:23:39.819Z,23.05
2023-01-29T21:26:07.138Z,23.90
2023-01-29T21:28:33.862Z,23.55
2023-01-29T21:31:10.079Z,23.35
2023-01-29T21:33:37.563Z,23.63
2023-01-29T21:36:04.578Z,23.45
2023-01-29T21:38:31.157Z,24.52
2023-01-29T21:41:02.715Z,24.15
2023-01-29T21:43:29.306Z,24.08
2023-01-29T21:45:57.466Z,23.13
2023-01-29T21:48:24.621Z,26.38
2023-01-29T21:50:52.354Z,24.13
2023-01-29T21:53:19.168Z,24.00
2023-01-29T21:55:46.374Z,22.98
2023-01-29T21:58:14.523Z,23.35
2023-01-29T22:00:41.250Z,27.38
2023-01-29T22:03:07.886Z,25.38
2023-01-29T22:05:34.770Z,23.35
2023-01-29T22:08:01.505Z,24.45
2023-01-29T22:10:28.855Z,26.00
2023-01-29T22:12:55.682Z,23.20
2023-01-29T22:15:23.909Z,24.63
2023-01-29T22:17:51.106Z,24.23
2023-01-29T22:20:18.857Z,24.30
2023-01-29T22:22:45.738Z,24.00
2023-01-29T22:25:12.627Z,25.48
2023-01-29T22:27:39.155Z,24.33
2023-01-29T22:30:06.562Z,23.60
2023-01-29T22:32:33.345Z,25.75
2023-01-29T22:34:59.945Z,26.05
2023-01-29T22:37:26.563Z,23.83
2023-01-29T22:39:53.076Z,25.08
2023-01-29T22:42:20.572Z,25.88
2023-01-29T22:44:48.101Z,24.77
2023-01-29T22:47:14.926Z,24.17
2023-01-29T22:49:42.346Z,25.77
2023-01-29T22:52:11.902Z,26.27
2023-01-29T22:54:40.399Z,26.05
2023-01-29T22:57:10.055Z,27.20
2023-01-29T22:59:37.318Z,28.23
2023-01-29T23:02:04.499Z,27.27
2023-01-29T23:04:31.272Z,27.63
2023-01-29T23:06:57.831Z,25.58
2023-01-29T23:09:24.413Z,27.75
2023-01-29T23:11:51.065Z,27.90
2023-01-29T23:14:17.959Z,26.10
2023-01-29T23:16:44.554Z,25.50
2023-01-29T23:19:12.140Z,27.95
2023-01-29T23:21:39.572Z,27.65
2023-01-29T23:24:07.440Z,25.95
2023-01-29T23:26:52.930Z,27.55
2023-01-29T23:29:19.533Z,27.83
2023-01-29T23:31:46.221Z,28.50
2023-01-29T23:34:13.758Z,27.95
2023-01-29T23:36:40.464Z,27.88
2023-01-29T23:39:07.747Z,26.98
2023-01-29T23:41:34.462Z,28.85
2023-01-29T23:44:01.132Z,26.17
2023-01-29T23:46:27.814Z,29.00
2023-01-29T23:48:54.384Z,29.48
2023-01-29T23:51:21.069Z,27.70
2023-01-29T23:53:47.623Z,27.15
2023-01-29T23:56:14.168Z,28.30
2023-01-29T23:58:40.752Z,28.88
